createdAt,value
2022-08-02T00:00:00.264Z,0.1
2022-08-02T00:05:00.223Z,0.0
2022-08-02T00:10:00.270Z,0.0
2022-08-02T00:15:00.232Z,0.0
2022-08-02T00:20:00.272Z,0.0
2022-08-02T00:25:00.237Z,0.1
2022-08-02T00:30:00.279Z,0.0
2022-08-02T00:35:00.252Z,0.0
2022-08-02T00:40:00.251Z,0.0
2022-08-02T00:45:00.232Z,0.0
2022-08-02T00:50:00.262Z,0.0
2022-08-02T00:55:00.308Z,0.0
2022-08-02T01:00:00.286Z,0.5
2022-08-02T01:05:00.237Z,0.1
2022-08-02T01:10:00.267Z,0.0
2022-08-02T01:15:00.259Z,0.1
2022-08-02T01:20:00.252Z,0.0
2022-08-02T01:25:00.258Z,0.0
2022-08-02T01:30:00.274Z,0.1
2022-08-02T01:35:00.246Z,0.0
2022-08-02T01:40:00.249Z,0.0
2022-08-02T01:45:00.297Z,0.0
2022-08-02T01:50:00.272Z,0.5
2022-08-02T01:55:00.240Z,0.3
2022-08-02T02:00:01.821Z,0.0
2022-08-02T02:05:00.217Z,0.0
2022-08-02T02:10:00.261Z,0.1
2022-08-02T02:15:00.254Z,0.0
2022-08-02T02:20:00.272Z,0.2
2022-08-02T02:25:00.391Z,0.5
2022-08-02T02:30:00.264Z,0.5
2022-08-02T02:35:00.234Z,0.9
2022-08-02T02:40:00.328Z,1.0
2022-08-02T02:45:00.255Z,0.6
2022-08-02T02:50:00.250Z,0.7
2022-08-02T02:55:00.225Z,0.1
2022-08-02T03:00:00.268Z,0.1
2022-08-02T03:05:00.232Z,0.4
2022-08-02T03:10:00.260Z,0.1
2022-08-02T03:15:00.228Z,0.0
2022-08-02T03:20:00.266Z,0.3
2022-08-02T03:25:00.243Z,0.0
2022-08-02T03:30:00.263Z,0.0
2022-08-02T03:35:00.220Z,0.0
2022-08-02T03:40:00.273Z,0.0
2022-08-02T03:45:07.936Z,0.0
2022-08-02T03:50:00.260Z,0.2
2022-08-02T03:55:00.139Z,0.1
2022-08-02T04:00:00.254Z,0.0
2022-08-02T04:05:00.236Z,0.0
2022-08-02T04:10:00.246Z,0.0
2022-08-02T04:15:00.229Z,0.1
2022-08-02T04:20:00.265Z,0.0
2022-08-02T04:25:01.174Z,0.0
2022-08-02T04:30:00.269Z,0.0
2022-08-02T04:35:20.810Z,0.0
2022-08-02T04:40:00.278Z,0.1
2022-08-02T04:45:00.246Z,0.4
2022-08-02T04:50:00.270Z,0.2
2022-08-02T04:55:00.258Z,0.5
2022-08-02T05:00:00.281Z,0.6
2022-08-02T05:05:00.209Z,1.5
2022-08-02T05:10:02.405Z,1.1
2022-08-02T05:15:00.252Z,1.2
2022-08-02T05:20:00.279Z,0.7
2022-08-02T05:25:00.215Z,1.3
2022-08-02T05:30:00.253Z,0.8
2022-08-02T05:35:00.216Z,1.1
2022-08-02T05:40:01.294Z,0.3
2022-08-02T05:45:00.262Z,0.2
2022-08-02T05:50:00.284Z,1.0
2022-08-02T05:55:00.272Z,0.5
2022-08-02T06:00:03.198Z,0.8
2022-08-02T06:05:00.244Z,1.5
2022-08-02T06:10:00.281Z,1.3
2022-08-02T06:15:00.254Z,1.6
2022-08-02T06:20:00.311Z,0.3
2022-08-02T06:25:00.238Z,2.1
2022-08-02T06:30:00.309Z,2.4
2022-08-02T06:35:00.255Z,0.6
2022-08-02T06:40:00.265Z,1.8
2022-08-02T06:45:00.149Z,2.9
2022-08-02T06:50:00.447Z,0.9
2022-08-02T06:55:00.430Z,2.1
2022-08-02T07:00:00.271Z,2.3
2022-08-02T07:05:00.260Z,2.8
2022-08-02T07:10:02.014Z,4.8
2022-08-02T07:15:00.306Z,3.1
2022-08-02T07:20:00.297Z,2.6
2022-08-02T07:25:00.277Z,3.2
2022-08-02T07:30:00.274Z,4.8
2022-08-02T07:35:06.778Z,3.0
2022-08-02T07:40:00.302Z,3.1
2022-08-02T07:45:00.135Z,2.2
2022-08-02T07:50:00.266Z,4.7
2022-08-02T07:55:00.230Z,3.1
2022-08-02T08:00:00.411Z,5.1
2022-08-02T08:05:00.249Z,2.2
2022-08-02T08:10:00.287Z,2.0
2022-08-02T08:15:00.275Z,1.5
2022-08-02T08:20:00.270Z,0.6
2022-08-02T08:25:00.245Z,3.7
2022-08-02T08:30:00.299Z,0.5
2022-08-02T08:35:00.304Z,3.2
2022-08-02T08:40:00.269Z,1.7
2022-08-02T08:45:01.247Z,3.0
2022-08-02T08:50:00.299Z,3.6
2022-08-02T08:55:00.271Z,3.0
2022-08-02T09:00:00.272Z,1.6
2022-08-02T09:05:00.275Z,6.2
2022-08-02T09:10:00.337Z,5.2
2022-08-02T09:15:00.260Z,3.9
2022-08-02T09:20:00.276Z,5.3
2022-08-02T09:25:00.264Z,5.2
2022-08-02T09:30:11.838Z,3.9
2022-08-02T09:35:00.285Z,2.7
2022-08-02T09:40:00.321Z,2.0
2022-08-02T09:45:00.287Z,4.2
2022-08-02T09:50:00.328Z,6.4
2022-08-02T09:55:00.253Z,6.0
2022-08-02T10:00:00.307Z,2.1
2022-08-02T10:05:02.358Z,4.1
2022-08-02T10:10:00.274Z,3.7
2022-08-02T10:15:00.307Z,5.3
2022-08-02T10:20:05.189Z,4.4
2022-08-02T10:25:00.136Z,3.8
2022-08-02T10:30:00.293Z,4.3
2022-08-02T10:35:19.288Z,3.4
2022-08-02T10:40:00.267Z,4.3
2022-08-02T10:45:00.285Z,2.4
2022-08-02T10:50:00.554Z,3.2
2022-08-02T10:55:00.244Z,2.4
2022-08-02T11:00:00.269Z,5.0
2022-08-02T11:05:00.239Z,3.3
2022-08-02T11:10:00.275Z,4.5
2022-08-02T11:15:00.247Z,4.5
2022-08-02T11:20:00.277Z,3.7
2022-08-02T11:25:00.617Z,3.7
2022-08-02T11:30:00.258Z,4.6
2022-08-02T11:35:00.252Z,5.3
2022-08-02T11:40:00.284Z,4.6
2022-08-02T11:45:00.263Z,4.1
2022-08-02T11:50:00.252Z,7.5
2022-08-02T11:55:00.235Z,7.4
2022-08-02T12:00:00.291Z,5.8
2022-08-02T12:05:00.743Z,6.2
2022-08-02T12:10:00.264Z,2.9
2022-08-02T12:15:00.272Z,8.1
2022-08-02T12:20:00.269Z,5.6
2022-08-02T12:25:00.279Z,6.8
2022-08-02T12:30:00.310Z,2.2
2022-08-02T12:35:00.238Z,4.9
2022-08-02T12:40:00.267Z,3.7
2022-08-02T12:45:00.411Z,3.5
2022-08-02T12:50:00.506Z,5.5
2022-08-02T12:55:00.249Z,1.8
2022-08-02T13:00:00.296Z,7.9
2022-08-02T13:05:00.253Z,4.9
2022-08-02T13:10:03.690Z,2.6
2022-08-02T13:15:00.252Z,6.1
2022-08-02T13:20:00.258Z,1.7
2022-08-02T13:25:00.250Z,4.9
2022-08-02T13:30:00.258Z,4.2
2022-08-02T13:35:00.254Z,5.0
2022-08-02T13:40:21.458Z,2.5
2022-08-02T13:45:12.000Z,4.3
2022-08-02T13:50:03.101Z,4.4
2022-08-02T13:55:00.248Z,2.5
2022-08-02T14:00:00.341Z,7.5
2022-08-02T14:05:00.235Z,3.8
2022-08-02T14:10:00.250Z,3.8
2022-08-02T14:15:00.276Z,5.1
2022-08-02T14:20:00.267Z,6.6
2022-08-02T14:25:09.589Z,6.1
2022-08-02T14:30:00.268Z,5.9
2022-08-02T14:35:00.235Z,3.8
2022-08-02T14:40:01.468Z,4.1
2022-08-02T14:45:00.270Z,4.6
2022-08-02T14:50:00.431Z,2.0
2022-08-02T14:55:00.257Z,4.2
2022-08-02T15:00:00.287Z,2.8
2022-08-02T15:05:00.251Z,5.1
2022-08-02T15:10:00.306Z,2.8
2022-08-02T15:15:00.248Z,2.8
2022-08-02T15:20:23.503Z,2.6
2022-08-02T15:25:00.250Z,5.9
2022-08-02T15:30:01.053Z,5.8
2022-08-02T15:35:00.359Z,3.8
2022-08-02T15:40:00.248Z,4.8
2022-08-02T15:45:00.355Z,5.3
2022-08-02T15:50:00.251Z,6.4
2022-08-02T15:55:07.577Z,3.5
2022-08-02T16:00:00.307Z,3.7
2022-08-02T16:05:00.245Z,4.2
2022-08-02T16:10:00.308Z,3.4
2022-08-02T16:15:00.252Z,1.1
2022-08-02T16:20:00.348Z,3.5
2022-08-02T16:25:00.244Z,2.5
2022-08-02T16:30:00.240Z,0.9
2022-08-02T16:35:09.426Z,1.2
2022-08-02T16:40:00.287Z,1.3
2022-08-02T16:45:00.234Z,2.1
2022-08-02T16:50:10.488Z,4.4
2022-08-02T16:55:00.236Z,4.0
2022-08-02T17:00:00.566Z,3.4
2022-08-02T17:05:00.259Z,3.1
2022-08-02T17:10:06.604Z,2.7
2022-08-02T17:15:02.754Z,2.5
2022-08-02T17:20:00.590Z,0.0
2022-08-02T17:25:00.261Z,0.9
2022-08-02T17:30:01.995Z,0.3
2022-08-02T17:35:04.205Z,0.2
2022-08-02T17:40:00.301Z,0.0
2022-08-02T17:45:16.162Z,0.5
2022-08-02T17:50:00.881Z,0.1
2022-08-02T17:55:00.278Z,0.0
2022-08-02T18:00:04.905Z,0.0
2022-08-02T18:05:00.277Z,0.0
2022-08-02T18:10:00.735Z,0.0
2022-08-02T18:15:01.518Z,0.0
2022-08-02T18:20:10.991Z,0.0
2022-08-02T18:25:09.704Z,0.0
2022-08-02T18:30:05.148Z,0.0
2022-08-02T18:35:00.231Z,0.0
2022-08-02T18:40:00.259Z,0.0
2022-08-02T18:45:00.263Z,0.0
2022-08-02T18:50:00.419Z,0.0
2022-08-02T18:55:00.308Z,0.0
2022-08-02T19:00:01.170Z,0.0
2022-08-02T19:05:00.258Z,0.0
2022-08-02T19:10:00.263Z,0.0
2022-08-02T19:15:01.542Z,0.0
2022-08-02T19:20:00.581Z,0.0
2022-08-02T19:25:01.821Z,0.0
2022-08-02T19:30:02.579Z,0.0
2022-08-02T19:35:00.299Z,0.0
2022-08-02T19:40:01.880Z,0.0
2022-08-02T19:45:00.257Z,0.0
2022-08-02T19:50:00.573Z,0.0
2022-08-02T19:55:59.060Z,0.0
2022-08-02T20:00:00.295Z,0.0
2022-08-02T20:05:16.206Z,0.0
2022-08-02T20:10:00.302Z,0.0
2022-08-02T20:15:00.302Z,0.0
2022-08-02T20:20:00.274Z,0.0
2022-08-02T20:25:00.277Z,0.0
2022-08-02T20:30:00.259Z,0.0
2022-08-02T20:35:00.262Z,0.0
2022-08-02T20:40:00.233Z,0.0
2022-08-02T20:45:00.284Z,0.0
2022-08-02T20:50:00.529Z,0.0
2022-08-02T20:55:00.316Z,0.0
2022-08-02T21:00:00.267Z,0.0
2022-08-02T21:05:15.480Z,0.0
2022-08-02T21:10:01.544Z,0.0
2022-08-02T21:15:00.250Z,0.0
2022-08-02T21:20:00.259Z,0.0
2022-08-02T21:25:00.831Z,0.0
2022-08-02T21:30:00.267Z,0.0
2022-08-02T21:35:00.247Z,0.0
2022-08-02T21:40:00.356Z,0.0
2022-08-02T21:45:00.250Z,0.0
2022-08-02T21:50:13.884Z,0.0
2022-08-02T21:55:00.217Z,0.0
2022-08-02T22:00:00.317Z,0.0
2022-08-02T22:05:03.467Z,0.0
2022-08-02T22:10:00.325Z,0.0
2022-08-02T22:15:00.934Z,0.0
2022-08-02T22:20:00.250Z,0.0
2022-08-02T22:25:01.821Z,0.0
2022-08-02T22:30:01.826Z,0.0
2022-08-02T22:35:00.558Z,0.0
2022-08-02T22:40:09.788Z,0.0
2022-08-02T22:45:00.483Z,0.0
2022-08-02T22:50:01.365Z,0.0
2022-08-02T22:55:00.248Z,0.0
2022-08-02T23:00:00.608Z,0.0
2022-08-02T23:05:00.247Z,0.0
2022-08-02T23:10:00.321Z,0.0
2022-08-02T23:15:00.259Z,0.0
2022-08-02T23:20:00.248Z,0.0
2022-08-02T23:25:00.282Z,0.0
2022-08-02T23:30:00.289Z,0.0
2022-08-02T23:35:00.236Z,0.0
2022-08-02T23:40:00.261Z,0.0
2022-08-02T23:45:00.255Z,0.0
2022-08-02T23:50:00.246Z,0.0
2022-08-02T23:55:00.230Z,0.0
